createdAt,value
2023-03-12T00:01:39.959Z,10.60
2023-03-12T00:04:02.502Z,6.87
2023-03-12T00:06:23.951Z,6.63
2023-03-12T00:08:45.456Z,9.47
2023-03-12T00:11:12.557Z,7.57
2023-03-12T00:13:34.344Z,7.10
2023-03-12T00:15:55.810Z,6.10
2023-03-12T00:18:17.837Z,10.20
2023-03-12T00:20:39.253Z,6.37
2023-03-12T00:23:00.777Z,7.57
2023-03-12T00:25:22.248Z,7.73
2023-03-12T00:27:43.741Z,6.97
2023-03-12T00:30:06.142Z,5.70
2023-03-12T00:32:27.616Z,5.80
2023-03-12T00:34:53.572Z,4.60
2023-03-12T00:37:15.028Z,3.93
2023-03-12T00:39:37.110Z,3.50
2023-03-12T00:41:58.532Z,4.53
2023-03-12T00:44:20.136Z,4.90
2023-03-12T00:46:41.663Z,4.47
2023-03-12T00:49:03.113Z,4.60
2023-03-12T00:51:24.616Z,3.33
2023-03-12T00:53:46.251Z,2.77
2023-03-12T00:56:08.020Z,3.67
2023-03-12T00:58:29.541Z,3.63
2023-03-12T01:00:51.041Z,3.50
2023-03-12T01:03:13.012Z,3.17
2023-03-12T01:05:37.755Z,3.07
2023-03-12T01:07:59.345Z,3.07
2023-03-12T01:10:21.909Z,2.70
2023-03-12T01:12:43.516Z,2.70
2023-03-12T01:15:05.584Z,3.17
2023-03-12T01:17:27.083Z,3.23
2023-03-12T01:19:48.570Z,3.50
2023-03-12T01:22:10.105Z,4.90
2023-03-12T01:24:31.673Z,3.53
2023-03-12T01:26:53.172Z,5.70
2023-03-12T01:29:14.641Z,5.53
2023-03-12T01:31:36.221Z,5.40
2023-03-12T01:33:57.769Z,4.73
2023-03-12T01:36:24.861Z,4.93
2023-03-12T01:38:46.971Z,5.30
2023-03-12T01:41:08.413Z,6.40
2023-03-12T01:43:33.774Z,5.53
2023-03-12T01:46:16.467Z,5.60
2023-03-12T01:48:45.125Z,4.83
2023-03-12T01:51:09.084Z,5.07
2023-03-12T01:53:31.604Z,5.33
2023-03-12T01:55:53.069Z,4.80
2023-03-12T01:58:15.343Z,4.53
2023-03-12T02:00:36.767Z,4.93
2023-03-12T02:03:04.630Z,4.53
2023-03-12T02:05:53.042Z,4.67
2023-03-12T02:08:17.161Z,4.10
2023-03-12T02:10:38.843Z,3.40
2023-03-12T02:13:00.310Z,3.70
2023-03-12T02:15:22.157Z,3.87
2023-03-12T02:17:44.112Z,4.00
2023-03-12T02:20:11.827Z,4.07
2023-03-12T02:22:36.092Z,3.10
2023-03-12T02:25:04.512Z,3.13
2023-03-12T02:27:26.116Z,3.30
2023-03-12T02:29:47.626Z,5.47
2023-03-12T02:32:15.752Z,7.00
2023-03-12T02:34:37.271Z,7.20
2023-03-12T02:36:58.724Z,7.07
2023-03-12T02:39:20.615Z,7.27
2023-03-12T02:41:46.372Z,6.90
2023-03-12T02:44:23.133Z,5.47
2023-03-12T02:46:50.880Z,6.20
2023-03-12T02:49:13.352Z,5.63
2023-03-12T02:51:35.112Z,4.57
2023-03-12T02:53:56.616Z,3.97
2023-03-12T02:56:18.057Z,3.60
2023-03-12T02:58:39.512Z,3.70
2023-03-12T03:01:01.008Z,3.33
2023-03-12T03:03:22.538Z,3.07
2023-03-12T03:05:44.379Z,2.60
2023-03-12T03:08:06.576Z,6.40
2023-03-12T03:10:28.029Z,5.10
2023-03-12T03:12:50.097Z,5.13
2023-03-12T03:15:12.044Z,6.40
2023-03-12T03:17:33.495Z,16.03
2023-03-12T03:19:55.426Z,8.40
2023-03-12T03:22:17.081Z,6.70
2023-03-12T03:24:38.597Z,8.57
2023-03-12T03:27:00.088Z,9.47
2023-03-12T03:29:21.825Z,7.53
2023-03-12T03:31:43.432Z,7.90
2023-03-12T03:34:04.934Z,8.00
2023-03-12T03:36:26.736Z,8.00
2023-03-12T03:38:49.860Z,8.43
2023-03-12T03:41:11.290Z,6.27
2023-03-12T03:43:33.114Z,4.63
2023-03-12T03:45:59.111Z,4.33
2023-03-12T03:48:20.583Z,4.33
2023-03-12T03:50:42.070Z,3.10
2023-03-12T03:53:03.746Z,2.53
2023-03-12T03:55:25.794Z,2.80
2023-03-12T03:57:48.189Z,3.07
2023-03-12T04:00:13.115Z,2.77
2023-03-12T04:02:35.054Z,3.63
2023-03-12T04:04:59.911Z,4.80
2023-03-12T04:07:21.458Z,4.80
2023-03-12T04:09:43.526Z,4.50
2023-03-12T04:12:05.178Z,2.93
2023-03-12T04:14:26.634Z,3.20
2023-03-12T04:16:48.089Z,2.80
2023-03-12T04:19:09.603Z,2.63
2023-03-12T04:21:31.041Z,4.07
2023-03-12T04:23:52.530Z,5.43
2023-03-12T04:26:14.097Z,5.33
2023-03-12T04:28:36.297Z,3.60
2023-03-12T04:31:03.472Z,3.13
2023-03-12T04:33:26.155Z,2.40
2023-03-12T04:35:52.637Z,2.80
2023-03-12T04:38:14.120Z,2.70
2023-03-12T04:40:35.599Z,3.30
2023-03-12T04:42:57.053Z,3.23
2023-03-12T04:45:18.574Z,3.50
2023-03-12T04:47:40.040Z,3.20
2023-03-12T04:50:01.494Z,3.20
2023-03-12T04:52:23.022Z,2.80
2023-03-12T04:54:46.805Z,2.70
2023-03-12T04:57:09.803Z,3.00
2023-03-12T04:59:31.357Z,2.87
2023-03-12T05:01:52.932Z,5.83
2023-03-12T05:04:14.553Z,6.73
2023-03-12T05:06:36.099Z,3.37
2023-03-12T05:08:58.034Z,3.00
2023-03-12T05:11:20.357Z,3.20
2023-03-12T05:13:42.220Z,3.17
2023-03-12T05:16:04.062Z,3.70
2023-03-12T05:18:26.521Z,7.10
2023-03-12T05:20:57.248Z,5.87
2023-03-12T05:23:18.680Z,5.40
2023-03-12T05:25:41.129Z,5.10
2023-03-12T05:28:02.573Z,5.10
2023-03-12T05:30:24.065Z,4.70
2023-03-12T05:32:45.583Z,4.60
2023-03-12T05:35:07.419Z,4.53
2023-03-12T05:37:28.861Z,4.60
2023-03-12T05:39:50.379Z,3.97
2023-03-12T05:42:11.834Z,3.20
2023-03-12T05:44:35.428Z,3.60
2023-03-12T05:46:58.959Z,2.80
2023-03-12T05:49:21.416Z,2.90
2023-03-12T05:51:43.507Z,3.17
2023-03-12T05:54:05.097Z,2.83
2023-03-12T05:56:27.011Z,3.10
2023-03-12T05:58:49.978Z,3.33
2023-03-12T06:01:13.733Z,2.80
2023-03-12T06:03:35.287Z,2.97
2023-03-12T06:05:57.158Z,3.00
2023-03-12T06:08:18.649Z,3.10
2023-03-12T06:10:40.246Z,3.30
2023-03-12T06:13:01.688Z,3.77
2023-03-12T06:15:23.160Z,4.73
2023-03-12T06:17:44.761Z,4.13
2023-03-12T06:20:07.115Z,3.73
2023-03-12T06:22:29.539Z,3.53
2023-03-12T06:24:51.016Z,5.73
2023-03-12T06:27:12.725Z,5.80
2023-03-12T06:29:34.164Z,3.33
2023-03-12T06:31:56.101Z,3.10
2023-03-12T06:34:17.911Z,2.67
2023-03-12T06:36:39.448Z,3.00
2023-03-12T06:39:00.904Z,2.67
2023-03-12T06:41:22.396Z,3.20
2023-03-12T06:43:44.905Z,3.50
2023-03-12T06:46:08.642Z,3.77
2023-03-12T06:48:33.500Z,3.20
2023-03-12T06:50:55.401Z,3.37
2023-03-12T06:53:17.507Z,2.70
2023-03-12T06:55:39.194Z,2.63
2023-03-12T06:58:00.785Z,2.83
2023-03-12T07:00:22.528Z,2.70
2023-03-12T07:02:43.978Z,2.73
2023-03-12T07:05:05.929Z,2.50
2023-03-12T07:07:27.409Z,2.43
2023-03-12T07:09:48.837Z,3.23
2023-03-12T07:12:10.307Z,2.50
2023-03-12T07:14:31.768Z,3.10
2023-03-12T07:16:53.245Z,3.63
2023-03-12T07:19:14.860Z,2.97
2023-03-12T07:21:36.455Z,3.03
2023-03-12T07:23:58.195Z,4.53
2023-03-12T07:26:20.469Z,4.33
2023-03-12T07:28:41.938Z,3.33
2023-03-12T07:31:04.764Z,3.70
2023-03-12T07:33:26.435Z,3.13
2023-03-12T07:35:51.502Z,3.73
2023-03-12T07:38:13.883Z,2.80
2023-03-12T07:40:36.510Z,3.77
2023-03-12T07:42:59.020Z,2.87
2023-03-12T07:45:20.956Z,4.03
2023-03-12T07:47:42.603Z,3.50
2023-03-12T07:50:04.404Z,4.40
2023-03-12T07:52:26.264Z,3.63
2023-03-12T07:54:48.001Z,3.23
2023-03-12T07:57:09.671Z,2.50
2023-03-12T07:59:31.224Z,3.80
2023-03-12T08:01:52.775Z,3.17
2023-03-12T08:04:14.329Z,2.60
2023-03-12T08:06:35.935Z,2.80
2023-03-12T08:08:57.432Z,3.00
2023-03-12T08:11:19.202Z,2.60
2023-03-12T08:13:40.728Z,2.87
2023-03-12T08:16:02.194Z,2.90
2023-03-12T08:18:24.824Z,2.53
2023-03-12T08:20:50.077Z,3.00
2023-03-12T08:23:12.185Z,2.83
2023-03-12T08:25:33.629Z,3.33
2023-03-12T08:27:55.130Z,3.00
2023-03-12T08:30:16.838Z,2.93
2023-03-12T08:32:38.572Z,2.70
2023-03-12T08:35:00.165Z,2.40
2023-03-12T08:37:23.033Z,2.60
2023-03-12T08:39:44.563Z,2.67
2023-03-12T08:42:07.777Z,3.07
2023-03-12T08:44:29.721Z,2.53
2023-03-12T08:46:52.228Z,2.90
2023-03-12T08:49:14.073Z,2.63
2023-03-12T08:51:35.571Z,2.90
2023-03-12T08:53:57.399Z,2.80
2023-03-12T08:56:18.836Z,2.80
2023-03-12T08:58:40.372Z,2.90
2023-03-12T09:01:02.197Z,2.77
2023-03-12T09:03:24.358Z,3.20
2023-03-12T09:05:45.907Z,2.40
2023-03-12T09:08:08.451Z,2.83
2023-03-12T09:10:31.226Z,2.70
2023-03-12T09:12:52.845Z,2.70
2023-03-12T09:15:14.371Z,2.70
2023-03-12T09:17:35.980Z,2.37
2023-03-12T09:19:57.555Z,2.37
2023-03-12T09:22:19.022Z,2.50
2023-03-12T09:24:40.517Z,2.97
2023-03-12T09:27:02.556Z,3.50
2023-03-12T09:29:24.823Z,2.93
2023-03-12T09:31:46.265Z,2.83
2023-03-12T09:34:07.793Z,3.00
2023-03-12T09:36:29.233Z,2.77
2023-03-12T09:38:50.694Z,2.83
2023-03-12T09:41:25.288Z,2.90
2023-03-12T09:43:55.767Z,3.17
2023-03-12T09:46:26.956Z,2.97
2023-03-12T09:48:50.136Z,3.13
2023-03-12T09:51:28.687Z,3.17
2023-03-12T09:53:56.641Z,2.60
2023-03-12T09:56:20.497Z,2.80
2023-03-12T09:58:44.493Z,2.87
2023-03-12T10:01:12.020Z,2.70
2023-03-12T10:03:33.519Z,3.10
2023-03-12T10:06:01.477Z,3.00
2023-03-12T10:08:32.236Z,2.90
2023-03-12T10:10:58.927Z,3.27
2023-03-12T10:13:52.808Z,2.83
2023-03-12T10:16:18.769Z,3.20
2023-03-12T10:18:55.256Z,3.17
2023-03-12T10:21:42.334Z,3.87
2023-03-12T10:24:31.666Z,2.90
2023-03-12T10:26:57.320Z,3.50
2023-03-12T10:29:23.554Z,3.90
2023-03-12T10:32:00.383Z,2.83
2023-03-12T10:34:37.673Z,3.93
2023-03-12T10:37:03.425Z,4.10
2023-03-12T10:39:24.938Z,4.20
2023-03-12T10:41:48.394Z,4.33
2023-03-12T10:44:25.247Z,4.30
2023-03-12T10:47:07.134Z,4.13
2023-03-12T10:49:37.163Z,6.80
2023-03-12T10:52:16.312Z,7.50
2023-03-12T10:54:40.656Z,3.60
2023-03-12T10:57:02.608Z,4.73
2023-03-12T10:59:28.848Z,3.87
2023-03-12T11:01:52.603Z,3.77
2023-03-12T11:04:18.500Z,5.10
2023-03-12T11:06:40.092Z,4.47
2023-03-12T11:09:16.769Z,7.80
2023-03-12T11:11:38.899Z,3.60
2023-03-12T11:14:20.357Z,3.63
2023-03-12T11:16:42.223Z,4.77
2023-03-12T11:19:05.871Z,3.73
2023-03-12T11:21:29.041Z,4.30
2023-03-12T11:23:56.382Z,4.70
2023-03-12T11:26:20.840Z,4.87
2023-03-12T11:28:46.466Z,4.10
2023-03-12T11:31:37.232Z,4.60
2023-03-12T11:34:05.398Z,4.00
2023-03-12T11:36:41.940Z,4.10
2023-03-12T11:39:10.367Z,4.17
2023-03-12T11:41:59.137Z,3.70
2023-03-12T11:44:31.249Z,4.83
2023-03-12T11:47:06.376Z,4.30
2023-03-12T11:49:53.399Z,4.40
2023-03-12T11:52:23.066Z,4.43
2023-03-12T11:55:03.019Z,3.87
2023-03-12T11:57:35.111Z,4.43
2023-03-12T12:00:17.347Z,4.63
2023-03-12T12:03:23.819Z,5.57
2023-03-12T12:06:32.042Z,5.30
2023-03-12T12:09:25.442Z,6.00
2023-03-12T12:12:05.666Z,6.37
2023-03-12T12:14:42.085Z,7.17
2023-03-12T12:17:27.880Z,5.90
2023-03-12T12:20:09.345Z,4.37
2023-03-12T12:22:49.596Z,4.70
2023-03-12T12:25:17.163Z,5.70
2023-03-12T12:28:05.529Z,5.63
2023-03-12T12:30:52.315Z,5.00
2023-03-12T12:33:23.931Z,3.33
2023-03-12T12:35:45.792Z,4.00
2023-03-12T12:38:30.394Z,3.47
2023-03-12T12:40:55.557Z,3.30
2023-03-12T12:43:28.592Z,3.90
2023-03-12T12:45:52.955Z,2.77
2023-03-12T12:48:27.195Z,3.10
2023-03-12T12:50:51.419Z,2.87
2023-03-12T12:53:36.080Z,3.30
2023-03-12T12:56:16.337Z,3.23
2023-03-12T12:58:59.662Z,3.00
2023-03-12T13:01:21.505Z,2.80
2023-03-12T13:03:44.470Z,2.40
2023-03-12T13:06:07.380Z,3.60
2023-03-12T13:08:33.637Z,2.60
2023-03-12T13:11:02.460Z,2.20
2023-03-12T13:13:27.754Z,2.53
2023-03-12T13:15:49.790Z,2.63
2023-03-12T13:18:24.456Z,2.60
2023-03-12T13:20:51.783Z,2.10
2023-03-12T13:23:47.390Z,2.00
2023-03-12T13:26:23.374Z,2.30
2023-03-12T13:28:56.814Z,1.80
2023-03-12T13:31:21.197Z,1.80
2023-03-12T13:33:46.226Z,1.67
2023-03-12T13:36:23.591Z,1.70
2023-03-12T13:38:59.127Z,1.70
2023-03-12T13:41:38.268Z,1.77
2023-03-12T13:44:00.210Z,1.40
2023-03-12T13:46:34.101Z,2.10
2023-03-12T13:49:03.421Z,2.70
2023-03-12T13:51:25.952Z,1.60
2023-03-12T13:53:50.641Z,1.53
2023-03-12T13:56:16.866Z,1.70
2023-03-12T13:59:09.874Z,1.37
2023-03-12T14:01:36.831Z,1.73
2023-03-12T14:04:10.774Z,2.00
2023-03-12T14:06:47.837Z,1.30
2023-03-12T14:09:24.500Z,1.20
2023-03-12T14:12:06.235Z,1.50
2023-03-12T14:15:01.812Z,1.57
2023-03-12T14:17:25.546Z,1.60
2023-03-12T14:19:52.556Z,1.53
2023-03-12T14:22:14.615Z,1.60
2023-03-12T14:24:54.039Z,1.80
2023-03-12T14:27:21.407Z,1.60
2023-03-12T14:29:52.111Z,1.77
2023-03-12T14:32:21.907Z,1.73
2023-03-12T14:34:49.884Z,2.10
2023-03-12T14:37:16.390Z,1.80
2023-03-12T14:39:54.854Z,2.20
2023-03-12T14:42:36.598Z,2.17
2023-03-12T14:45:12.892Z,2.33
2023-03-12T14:47:41.792Z,2.10
2023-03-12T14:50:03.968Z,2.20
2023-03-12T14:52:30.593Z,2.20
2023-03-12T14:55:04.954Z,2.37
2023-03-12T14:57:26.996Z,2.60
2023-03-12T14:59:57.584Z,2.77
2023-03-12T15:02:20.395Z,3.10
2023-03-12T15:04:42.499Z,2.97
2023-03-12T15:07:06.564Z,3.43
2023-03-12T15:09:30.487Z,3.57
2023-03-12T15:12:04.087Z,3.73
2023-03-12T15:14:28.505Z,3.80
2023-03-12T15:16:50.783Z,4.40
2023-03-12T15:19:14.751Z,4.60
2023-03-12T15:21:36.399Z,4.60
2023-03-12T15:23:58.732Z,4.73
2023-03-12T15:26:20.125Z,4.90
2023-03-12T15:28:42.091Z,5.13
2023-03-12T15:31:06.746Z,5.93
2023-03-12T15:33:28.325Z,5.70
2023-03-12T15:36:02.010Z,5.47
2023-03-12T15:38:24.182Z,6.07
2023-03-12T15:40:51.317Z,6.13
2023-03-12T15:43:19.169Z,5.40
2023-03-12T15:45:40.799Z,6.00
2023-03-12T15:48:04.422Z,5.60
2023-03-12T15:50:41.845Z,6.20
2023-03-12T15:53:12.243Z,5.93
2023-03-12T15:55:35.594Z,6.03
2023-03-12T15:57:58.846Z,6.80
2023-03-12T16:00:20.654Z,6.53
2023-03-12T16:03:04.048Z,6.17
2023-03-12T16:05:33.239Z,6.10
2023-03-12T16:07:54.963Z,5.30
2023-03-12T16:10:19.935Z,5.83
2023-03-12T16:12:43.173Z,5.43
2023-03-12T16:15:05.044Z,5.57
2023-03-12T16:17:26.491Z,6.67
2023-03-12T16:19:47.934Z,6.03
2023-03-12T16:22:09.385Z,6.27
2023-03-12T16:24:31.935Z,5.90
2023-03-12T16:26:58.703Z,6.37
2023-03-12T16:29:21.298Z,6.80
2023-03-12T16:31:42.947Z,6.23
2023-03-12T16:34:04.472Z,5.83
2023-03-12T16:36:26.774Z,8.00
2023-03-12T16:38:48.315Z,8.13
2023-03-12T16:41:19.628Z,7.83
2023-03-12T16:43:43.076Z,9.73
2023-03-12T16:46:08.388Z,8.90
2023-03-12T16:48:29.925Z,6.73
2023-03-12T16:50:54.181Z,6.27
2023-03-12T16:53:16.300Z,10.60
2023-03-12T16:56:06.149Z,6.70
2023-03-12T16:58:29.436Z,6.77
2023-03-12T17:00:53.025Z,6.17
2023-03-12T17:03:43.643Z,7.50
2023-03-12T17:06:07.477Z,6.87
2023-03-12T17:08:29.057Z,8.87
2023-03-12T17:10:50.485Z,7.70
2023-03-12T17:13:20.604Z,6.70
2023-03-12T17:15:42.094Z,6.00
2023-03-12T17:18:04.477Z,6.50
2023-03-12T17:20:25.934Z,5.30
2023-03-12T17:22:48.162Z,5.50
2023-03-12T17:25:25.083Z,4.70
2023-03-12T17:27:46.626Z,5.03
2023-03-12T17:30:08.865Z,5.80
2023-03-12T17:32:30.643Z,6.10
2023-03-12T17:34:56.968Z,6.23
2023-03-12T17:37:18.422Z,9.50
2023-03-12T17:39:39.842Z,8.60
2023-03-12T17:42:01.382Z,5.77
2023-03-12T17:44:22.893Z,5.77
2023-03-12T17:46:56.538Z,6.40
2023-03-12T17:49:21.065Z,6.00
2023-03-12T17:51:42.551Z,6.10
2023-03-12T17:54:04.562Z,5.43
2023-03-12T17:56:26.009Z,6.07
2023-03-12T17:58:47.665Z,5.23
2023-03-12T18:01:09.108Z,5.83
2023-03-12T18:03:30.630Z,5.10
2023-03-12T18:05:52.086Z,5.20
2023-03-12T18:08:15.165Z,5.50
2023-03-12T18:10:40.568Z,5.60
2023-03-12T18:13:02.017Z,8.87
2023-03-12T18:15:23.497Z,6.50
2023-03-12T18:17:45.083Z,8.60
2023-03-12T18:20:09.864Z,12.27
2023-03-12T18:22:31.328Z,9.17
2023-03-12T18:24:52.810Z,9.50
2023-03-12T18:27:14.283Z,4.67
2023-03-12T18:29:36.889Z,3.93
2023-03-12T18:31:58.334Z,4.67
2023-03-12T18:34:20.779Z,5.30
2023-03-12T18:36:42.198Z,4.33
2023-03-12T18:39:05.034Z,5.37
2023-03-12T18:41:30.404Z,4.80
2023-03-12T18:43:53.874Z,5.30
2023-03-12T18:46:15.570Z,5.47
2023-03-12T18:48:37.066Z,4.87
2023-03-12T18:50:58.524Z,5.17
2023-03-12T18:53:20.107Z,4.60
2023-03-12T18:55:41.587Z,5.23
2023-03-12T18:58:03.059Z,5.23
2023-03-12T19:00:24.501Z,5.57
2023-03-12T19:02:47.961Z,4.80
2023-03-12T19:05:11.058Z,5.63
2023-03-12T19:07:33.050Z,5.30
2023-03-12T19:09:54.512Z,5.43
2023-03-12T19:12:16.040Z,6.20
2023-03-12T19:14:37.651Z,5.27
2023-03-12T19:16:59.136Z,5.30
2023-03-12T19:19:21.653Z,5.60
2023-03-12T19:21:43.098Z,4.83
2023-03-12T19:24:04.826Z,5.60
2023-03-12T19:26:26.304Z,5.57
2023-03-12T19:28:47.841Z,6.10
2023-03-12T19:31:12.069Z,5.33
2023-03-12T19:33:33.584Z,5.90
2023-03-12T19:35:55.131Z,5.37
2023-03-12T19:38:17.734Z,5.07
2023-03-12T19:40:39.253Z,5.23
2023-03-12T19:43:01.806Z,5.10
2023-03-12T19:45:23.268Z,5.53
2023-03-12T19:47:44.763Z,5.00
2023-03-12T19:50:08.142Z,5.63
2023-03-12T19:52:30.031Z,5.57
2023-03-12T19:55:03.371Z,5.93
2023-03-12T19:57:25.785Z,5.20
2023-03-12T19:59:47.271Z,5.10
2023-03-12T20:02:12.756Z,5.47
2023-03-12T20:04:34.231Z,4.43
2023-03-12T20:06:55.650Z,5.43
2023-03-12T20:09:17.124Z,5.50
2023-03-12T20:11:38.679Z,5.30
2023-03-12T20:14:00.205Z,5.53
2023-03-12T20:16:21.804Z,5.30
2023-03-12T20:18:43.432Z,5.03
2023-03-12T20:21:05.088Z,5.57
2023-03-12T20:23:26.614Z,4.60
2023-03-12T20:25:50.143Z,4.80
2023-03-12T20:28:11.589Z,4.90
2023-03-12T20:30:35.924Z,4.97
2023-03-12T20:32:57.458Z,5.00
2023-03-12T20:35:19.001Z,4.97
2023-03-12T20:37:40.525Z,4.67
2023-03-12T20:40:01.959Z,4.70
2023-03-12T20:42:23.494Z,4.93
2023-03-12T20:44:44.918Z,4.43
2023-03-12T20:47:06.375Z,4.60
2023-03-12T20:49:27.843Z,5.10
2023-03-12T20:51:49.321Z,5.37
2023-03-12T20:54:11.037Z,4.77
2023-03-12T20:56:32.470Z,4.93
2023-03-12T20:58:54.022Z,5.23
2023-03-12T21:01:15.589Z,4.73
2023-03-12T21:03:37.064Z,4.03
2023-03-12T21:06:01.221Z,5.03
2023-03-12T21:08:23.566Z,5.30
2023-03-12T21:10:44.985Z,4.70
2023-03-12T21:13:06.432Z,4.97
2023-03-12T21:15:27.910Z,5.53
2023-03-12T21:17:49.347Z,4.50
2023-03-12T21:20:13.466Z,4.87
2023-03-12T21:22:35.203Z,5.20
2023-03-12T21:24:56.716Z,4.67
2023-03-12T21:27:18.233Z,5.17
2023-03-12T21:29:39.676Z,5.30
2023-03-12T21:32:01.167Z,4.93
2023-03-12T21:34:23.374Z,4.77
2023-03-12T21:36:44.820Z,4.77
2023-03-12T21:39:06.267Z,4.07
2023-03-12T21:41:27.694Z,4.53
2023-03-12T21:43:49.186Z,4.47
2023-03-12T21:46:13.772Z,4.57
2023-03-12T21:48:36.266Z,4.60
2023-03-12T21:51:02.456Z,4.60
2023-03-12T21:53:24.285Z,4.57
2023-03-12T21:55:54.890Z,4.63
2023-03-12T21:58:16.372Z,4.40
2023-03-12T22:00:37.805Z,4.67
2023-03-12T22:02:59.244Z,4.33
2023-03-12T22:05:20.742Z,5.03
2023-03-12T22:07:42.205Z,4.50
2023-03-12T22:10:07.130Z,4.33
2023-03-12T22:12:28.629Z,5.00
2023-03-12T22:14:50.090Z,4.80
2023-03-12T22:17:11.481Z,4.87
2023-03-12T22:19:32.912Z,5.90
2023-03-12T22:21:54.363Z,5.57
2023-03-12T22:24:15.834Z,5.43
2023-03-12T22:26:37.309Z,4.83
2023-03-12T22:28:58.909Z,4.40
2023-03-12T22:31:22.091Z,5.03
2023-03-12T22:33:44.693Z,4.47
2023-03-12T22:36:08.489Z,4.37
2023-03-12T22:38:29.965Z,4.73
2023-03-12T22:40:53.707Z,4.47
2023-03-12T22:43:16.878Z,4.83
2023-03-12T22:45:38.302Z,5.07
2023-03-12T22:48:00.275Z,4.50
2023-03-12T22:50:23.295Z,4.17
2023-03-12T22:52:44.734Z,4.93
2023-03-12T22:55:06.606Z,4.53
2023-03-12T22:57:28.064Z,5.10
2023-03-12T22:59:49.492Z,4.50
2023-03-12T23:02:11.117Z,4.53
2023-03-12T23:04:32.663Z,4.97
2023-03-12T23:07:01.606Z,4.37
2023-03-12T23:09:33.038Z,5.37
2023-03-12T23:11:54.469Z,4.93
2023-03-12T23:14:15.957Z,5.17
2023-03-12T23:16:37.423Z,5.20
2023-03-12T23:19:00.013Z,4.90
2023-03-12T23:21:23.294Z,4.10
2023-03-12T23:23:45.285Z,4.67
2023-03-12T23:26:06.799Z,4.80
2023-03-12T23:28:29.840Z,4.03
2023-03-12T23:30:53.947Z,4.50
2023-03-12T23:33:15.385Z,4.30
2023-03-12T23:35:36.881Z,5.27
2023-03-12T23:37:59.171Z,5.17
2023-03-12T23:40:20.609Z,4.80
2023-03-12T23:42:42.048Z,5.50
2023-03-12T23:45:03.987Z,4.37
2023-03-12T23:47:25.415Z,5.47
2023-03-12T23:49:46.844Z,4.10
2023-03-12T23:52:08.304Z,5.17
2023-03-12T23:54:29.893Z,4.30
2023-03-12T23:56:51.350Z,4.30
2023-03-12T23:59:12.814Z,4.27
